Time;durP1;ratioP1;P1;durP2;ratioP2;P2;SDS_P1;SDS_P2;PMS_P1;PMS_P2;Temp;Humidity;BMP_temperature;BMP_pressure;BME280_temperature;BME280_humidity;BME280_pressure;Samples;Min_cycle;Max_cycle;Signal;HPM_P1;HPM_P2
2023/03/15 00:01:06;;;;;;;6.28;0.80;;;;;;;-146.27;100.00;48467.31;5086570;28;20024;-69
2023/03/15 00:03:35;;;;;;;7.57;1.33;;;;;;;-146.27;100.00;48447.38;5087036;28;20120;-71
2023/03/15 00:06:02;;;;;;;3.92;0.88;;;;;;;-146.27;100.00;48467.31;5079537;28;20130;-68
2023/03/15 00:08:28;;;;;;;6.72;1.75;;;;;;;-146.27;100.00;48487.22;5089853;28;20032;-70
2023/03/15 00:10:53;;;;;;;2.97;1.02;;;;;;;-146.27;100.00;48427.47;5074158;28;20028;-69
2023/03/15 00:13:19;;;;;;;4.43;1.02;;;;;;;-146.27;100.00;48439.41;5083949;28;20376;-70
2023/03/15 00:15:49;;;;;;;2.53;0.80;;;;;;;-146.27;100.00;48403.56;5086503;28;20479;-71
2023/03/15 00:18:17;;;;;;;1.45;0.70;;;;;;;-146.27;100.00;48459.34;5078624;28;20044;-69
2023/03/15 00:20:44;;;;;;;6.38;0.90;;;;;;;-146.27;100.00;48439.41;5085181;28;20111;-69
2023/03/15 00:23:09;;;;;;;3.30;1.00;;;;;;;-146.27;100.00;48445.41;5092968;28;20456;-68
2023/03/15 00:25:36;;;;;;;4.35;0.65;;;;;;;-146.27;100.00;48451.38;5083003;28;20055;-70
2023/03/15 00:28:01;;;;;;;5.85;1.05;;;;;;;-146.27;100.00;48445.41;5074800;28;20036;-70
2023/03/15 00:30:26;;;;;;;6.88;0.70;;;;;;;-146.27;100.00;48475.28;5085324;28;20375;-69
2023/03/15 00:32:52;;;;;;;11.98;1.63;;;;;;;-146.27;100.00;48423.50;5076707;28;20016;-68
2023/03/15 00:35:18;;;;;;;3.92;0.65;;;;;;;-146.27;100.00;48455.34;5084862;28;20089;-71
2023/03/15 00:37:44;;;;;;;9.90;1.35;;;;;;;-146.27;100.00;48451.38;5080358;28;20471;-68
2023/03/15 00:40:11;;;;;;;4.78;1.15;;;;;;;-146.27;100.00;48449.38;5091991;28;20028;-69
2023/03/15 00:42:36;;;;;;;4.72;0.90;;;;;;;-146.27;100.00;48439.41;5081287;28;20027;-69
2023/03/15 00:45:02;;;;;;;4.38;1.00;;;;;;;-146.27;100.00;48435.44;5086309;28;20036;-70
2023/03/15 00:47:27;;;;;;;5.85;1.38;;;;;;;-146.27;100.00;48447.38;5085289;28;20484;-70
2023/03/15 00:49:53;;;;;;;4.20;0.85;;;;;;;-146.27;100.00;48427.47;5087345;28;20028;-69
2023/03/15 00:52:18;;;;;;;7.20;0.93;;;;;;;-146.27;100.00;48439.41;5092217;28;20111;-69
2023/03/15 00:54:53;;;;;;;6.72;0.90;;;;;;;-146.27;100.00;48455.34;5074817;28;20025;-68
2023/03/15 00:57:19;;;;;;;6.00;1.33;;;;;;;-146.27;100.00;48423.50;5074399;28;20356;-69
2023/03/15 00:59:45;;;;;;;2.67;0.90;;;;;;;-146.27;100.00;48487.22;5073132;28;20043;-70
2023/03/15 01:02:11;;;;;;;3.85;0.90;;;;;;;-146.27;100.00;48415.53;5081881;28;20028;-71
2023/03/15 01:04:36;;;;;;;6.45;1.67;;;;;;;-146.27;100.00;48433.44;5086924;28;20077;-70
2023/03/15 01:07:02;;;;;;;5.70;0.98;;;;;;;-146.27;100.00;48419.50;5085393;28;20041;-69
2023/03/15 01:09:27;;;;;;;5.18;1.52;;;;;;;-146.27;100.00;48467.31;5090670;28;20039;-67
2023/03/15 01:11:52;;;;;;;6.80;1.15;;;;;;;-146.27;100.00;48443.41;5090417;28;20077;-68
2023/03/15 01:14:18;;;;;;;8.45;1.25;;;;;;;-146.27;100.00;48423.50;5083580;28;20432;-70
2023/03/15 01:16:44;;;;;;;9.45;1.08;;;;;;;-146.27;100.00;48479.25;5085749;28;20028;-68
2023/03/15 01:19:12;;;;;;;2.13;1.05;;;;;;;-146.27;100.00;48435.44;5086557;28;20475;-69
2023/03/15 01:21:38;;;;;;;3.83;1.00;;;;;;;-146.27;100.00;48439.41;5076174;28;20016;-69
2023/03/15 01:24:03;;;;;;;6.57;1.20;;;;;;;-146.27;100.00;48423.50;5089113;28;20033;-70
2023/03/15 01:26:29;;;;;;;7.93;1.27;;;;;;;-146.27;100.00;48449.38;5072088;28;20024;-70
2023/03/15 01:28:54;;;;;;;4.70;1.20;;;;;;;-146.27;100.00;48455.34;5074468;28;20047;-69
2023/03/15 01:31:23;;;;;;;6.88;1.00;;;;;;;-146.27;100.00;48441.41;5080283;28;20309;-70
2023/03/15 01:33:48;;;;;;;5.70;0.80;;;;;;;-146.27;100.00;48453.38;5088679;28;20035;-69
2023/03/15 01:36:15;;;;;;;2.22;1.10;;;;;;;-146.27;100.00;48421.50;5090374;28;20032;-69
2023/03/15 01:38:41;;;;;;;5.85;1.10;;;;;;;-146.27;100.00;48415.53;5088618;28;20020;-70
2023/03/15 01:41:06;;;;;;;4.03;1.40;;;;;;;-146.27;100.00;48417.50;5081496;28;20036;-70
2023/03/15 01:43:32;;;;;;;4.10;0.70;;;;;;;-146.27;100.00;48471.28;5086354;28;20384;-69
2023/03/15 01:46:00;;;;;;;6.53;1.30;;;;;;;-146.27;100.00;48427.47;5082389;28;20035;-68
2023/03/15 01:48:53;;;;;;;2.15;0.90;;;;;;;-146.27;100.00;48455.34;5083533;28;20035;-69
2023/03/15 01:51:21;;;;;;;4.55;1.20;;;;;;;-146.27;100.00;48421.50;5084568;28;20040;-70
2023/03/15 01:53:57;;;;;;;6.72;1.23;;;;;;;-146.27;100.00;48439.41;5077449;28;20032;-70
2023/03/15 01:56:23;;;;;;;2.60;0.98;;;;;;;-146.27;100.00;48435.44;5090201;28;20032;-70
2023/03/15 01:58:51;;;;;;;4.32;0.80;;;;;;;-146.27;100.00;48463.31;5090007;28;20027;-68
2023/03/15 02:01:19;;;;;;;12.30;1.20;;;;;;;-146.27;100.00;48453.38;5085982;28;20035;-69
2023/03/15 02:03:47;;;;;;;4.72;1.05;;;;;;;-146.27;100.00;48419.50;5077088;28;20035;-68
2023/03/15 02:06:19;;;;;;;5.28;1.08;;;;;;;-146.27;100.00;48459.34;5082534;28;20392;-70
2023/03/15 02:08:50;;;;;;;3.45;1.20;;;;;;;-146.27;100.00;48463.31;5079307;28;20033;-69
2023/03/15 02:11:19;;;;;;;2.72;1.17;;;;;;;-146.27;100.00;48453.38;5080959;28;20463;-70
2023/03/15 02:13:47;;;;;;;6.47;0.90;;;;;;;-146.27;100.00;48411.53;5087123;28;20020;-70
2023/03/15 02:16:12;;;;;;;3.03;0.60;;;;;;;-146.27;100.00;48411.53;5086160;28;20817;-70
2023/03/15 02:18:38;;;;;;;5.22;0.82;;;;;;;-146.27;100.00;48455.34;5088770;28;20099;-70
2023/03/15 02:21:28;;;;;;;3.65;0.90;;;;;;;-146.27;100.00;48481.25;5084692;28;20377;-69
2023/03/15 02:24:17;;;;;;;1.90;0.98;;;;;;;-146.27;100.00;48443.41;5075897;28;20029;-68
2023/03/15 02:26:53;;;;;;;3.72;1.10;;;;;;;-146.27;100.00;48449.38;5078743;28;20059;-69
2023/03/15 02:29:22;;;;;;;5.00;0.90;;;;;;;-146.27;100.00;48455.34;5088516;28;20137;-71
2023/03/15 02:31:48;;;;;;;4.10;1.30;;;;;;;-146.27;100.00;48445.41;5079726;28;20309;-69
2023/03/15 02:34:13;;;;;;;4.22;1.98;;;;;;;-146.27;100.00;48443.41;5086061;28;20024;-70
2023/03/15 02:36:38;;;;;;;2.67;0.95;;;;;;;-146.27;100.00;48475.28;5085934;28;20103;-69
2023/03/15 02:39:33;;;;;;;4.32;0.90;;;;;;;-146.27;100.00;48467.31;5075957;28;20028;-70
2023/03/15 02:41:58;;;;;;;2.25;1.10;;;;;;;-146.27;100.00;48441.41;5074624;28;20040;-70
2023/03/15 02:44:32;;;;;;;3.53;0.70;;;;;;;-146.27;100.00;48443.41;5080773;28;20097;-69
2023/03/15 02:47:09;;;;;;;4.18;0.90;;;;;;;-146.27;100.00;48439.41;5081664;28;20032;-70
2023/03/15 02:49:40;;;;;;;0.95;0.70;;;;;;;-146.27;100.00;48457.34;5075581;28;20024;-70
2023/03/15 02:52:06;;;;;;;5.38;0.98;;;;;;;-146.27;100.00;48447.38;5091273;28;20023;-70
2023/03/15 02:54:34;;;;;;;3.95;1.40;;;;;;;-146.27;100.00;48443.41;5093408;28;20433;-70
2023/03/15 02:57:01;;;;;;;2.67;1.00;;;;;;;-146.27;100.00;48449.38;5093912;28;20609;-70
2023/03/15 02:59:26;;;;;;;2.28;0.82;;;;;;;-146.27;100.00;48435.44;5081867;28;20024;-69
2023/03/15 03:01:52;;;;;;;4.90;1.15;;;;;;;-146.27;100.00;48451.38;5087142;28;20429;-70
2023/03/15 03:04:17;;;;;;;5.15;1.10;;;;;;;-146.27;100.00;48435.44;5086598;28;20058;-70
2023/03/15 03:06:43;;;;;;;2.80;0.98;;;;;;;-146.27;100.00;48463.31;5093574;28;20040;-70
2023/03/15 03:09:09;;;;;;;3.78;1.10;;;;;;;-146.27;100.00;48441.41;5082358;28;20039;-70
2023/03/15 03:11:35;;;;;;;2.08;0.70;;;;;;;-146.27;100.00;48451.38;5094104;28;20403;-71
2023/03/15 03:14:01;;;;;;;4.03;1.08;;;;;;;-146.27;100.00;48455.34;5090071;28;20020;-69
2023/03/15 03:16:26;;;;;;;7.05;0.98;;;;;;;-146.27;100.00;48465.31;5075170;28;20028;-71
2023/03/15 03:18:51;;;;;;;2.30;0.90;;;;;;;-146.27;100.00;48415.53;5080477;28;20016;-70
2023/03/15 03:21:17;;;;;;;9.93;1.70;;;;;;;-146.27;100.00;48447.38;5077029;28;20021;-71
2023/03/15 03:23:45;;;;;;;4.13;0.85;;;;;;;-146.27;100.00;48459.34;5086493;28;20062;-70
2023/03/15 03:26:16;;;;;;;12.15;1.10;;;;;;;-146.27;100.00;48423.50;5087674;28;20416;-71
2023/03/15 03:28:44;;;;;;;6.32;0.77;;;;;;;-146.27;100.00;48439.41;5085483;28;20491;-70
2023/03/15 03:31:18;;;;;;;9.02;0.93;;;;;;;-146.27;100.00;48435.44;5081344;28;20491;-70
2023/03/15 03:33:43;;;;;;;6.47;0.77;;;;;;;-146.27;100.00;48415.53;5083491;28;20038;-70
2023/03/15 03:36:11;;;;;;;9.23;0.90;;;;;;;-146.27;100.00;48417.50;5084517;28;20032;-70
2023/03/15 03:38:44;;;;;;;8.88;1.00;;;;;;;-146.27;100.00;48483.25;5085355;28;20103;-69
2023/03/15 03:41:11;;;;;;;5.00;0.87;;;;;;;-146.27;100.00;48427.47;5091332;28;20056;-70
2023/03/15 03:43:37;;;;;;;3.40;1.23;;;;;;;-146.27;100.00;48435.44;5083519;28;20104;-70
2023/03/15 03:46:02;;;;;;;5.95;1.02;;;;;;;-146.27;100.00;48439.41;5086735;28;20102;-70
2023/03/15 03:48:29;;;;;;;4.43;1.30;;;;;;;-146.27;100.00;48485.22;5088652;28;20360;-70
2023/03/15 03:50:55;;;;;;;7.20;1.00;;;;;;;-146.27;100.00;48447.38;5086043;28;20043;-71
2023/03/15 03:53:21;;;;;;;7.90;1.40;;;;;;;-146.27;100.00;48445.41;5083413;28;20054;-69
2023/03/15 03:55:46;;;;;;;0.70;0.70;;;;;;;-146.27;100.00;48435.44;5089469;28;20028;-69
2023/03/15 03:58:11;;;;;;;4.75;1.10;;;;;;;-146.27;100.00;48447.38;5091648;28;20520;-70
2023/03/15 04:00:37;;;;;;;6.15;1.02;;;;;;;-146.27;100.00;48467.31;5076339;28;20460;-70
2023/03/15 04:03:02;;;;;;;2.22;0.80;;;;;;;-146.27;100.00;48455.34;5080995;28;20160;-69
2023/03/15 04:05:28;;;;;;;1.17;0.68;;;;;;;-146.27;100.00;48439.41;5088985;28;20035;-70
2023/03/15 04:07:53;;;;;;;1.50;0.52;;;;;;;-146.27;100.00;48451.38;5088647;28;20131;-70
2023/03/15 04:10:25;;;;;;;3.78;1.40;;;;;;;-146.27;100.00;48461.34;5080044;28;20028;-69
2023/03/15 04:12:53;;;;;;;9.82;0.98;;;;;;;-146.27;100.00;48429.47;5075211;28;20028;-71
2023/03/15 04:15:21;;;;;;;2.10;0.65;;;;;;;-146.27;100.00;48461.34;5085036;28;20028;-70
2023/03/15 04:17:47;;;;;;;4.20;0.90;;;;;;;-146.27;100.00;48455.34;5087707;28;20032;-70
2023/03/15 04:20:12;;;;;;;3.65;1.00;;;;;;;-146.27;100.00;48419.50;5090251;28;20024;-72
2023/03/15 04:22:38;;;;;;;10.40;1.13;;;;;;;-146.27;100.00;48425.47;5086779;28;20369;-71
2023/03/15 04:25:04;;;;;;;4.68;1.20;;;;;;;-146.27;100.00;48449.38;5089832;28;20043;-70
2023/03/15 04:27:30;;;;;;;1.90;1.05;;;;;;;-146.27;100.00;48439.41;5079795;28;20036;-69
2023/03/15 04:29:55;;;;;;;8.25;1.20;;;;;;;-146.27;100.00;48475.28;5085234;28;20020;-70
2023/03/15 04:32:21;;;;;;;4.13;1.00;;;;;;;-146.27;100.00;48439.41;5092300;28;20024;-69
2023/03/15 04:34:50;;;;;;;6.10;0.98;;;;;;;-146.27;100.00;48439.41;5088189;28;20028;-70
2023/03/15 04:37:18;;;;;;;2.15;0.80;;;;;;;-146.27;100.00;48457.34;5087815;28;20056;-70
2023/03/15 04:39:44;;;;;;;3.42;1.00;;;;;;;-146.27;100.00;48425.47;5077024;28;20078;-69
2023/03/15 04:42:09;;;;;;;5.85;1.60;;;;;;;-146.27;100.00;48449.38;5091894;28;20387;-70
2023/03/15 04:44:35;;;;;;;12.23;1.35;;;;;;;-146.27;100.00;48455.34;5089822;28;20493;-71
2023/03/15 04:47:00;;;;;;;7.70;1.20;;;;;;;-146.27;100.00;48451.38;5075719;28;20025;-70
2023/03/15 04:49:26;;;;;;;4.15;1.15;;;;;;;-146.27;100.00;48441.41;5088827;28;20073;-70
2023/03/15 04:51:51;;;;;;;1.98;1.40;;;;;;;-146.27;100.00;48459.34;5081822;28;20032;-71
2023/03/15 04:54:17;;;;;;;2.80;1.23;;;;;;;-146.27;100.00;48427.47;5080069;28;20488;-70
2023/03/15 04:56:42;;;;;;;9.00;1.65;;;;;;;-146.27;100.00;48449.38;5087694;28;20028;-69
2023/03/15 04:59:09;;;;;;;5.57;1.13;;;;;;;-146.27;100.00;48493.19;5088757;28;20052;-71
2023/03/15 05:01:35;;;;;;;6.13;1.15;;;;;;;-146.27;100.00;48455.34;5085140;28;20111;-69
2023/03/15 05:04:00;;;;;;;10.80;2.67;;;;;;;-146.27;100.00;48451.38;5089335;28;20020;-70
2023/03/15 05:06:26;;;;;;;7.15;3.15;;;;;;;-146.27;100.00;48455.34;5089761;28;20100;-70
2023/03/15 05:08:53;;;;;;;6.10;2.50;;;;;;;-146.27;100.00;48487.22;5089385;28;20024;-70
2023/03/15 05:11:18;;;;;;;11.13;2.63;;;;;;;-146.27;100.00;48409.53;5078120;28;20027;-71
2023/03/15 05:13:44;;;;;;;10.38;3.53;;;;;;;-146.27;100.00;48435.44;5084940;28;20519;-69
2023/03/15 05:16:09;;;;;;;7.18;3.35;;;;;;;-146.27;100.00;48459.34;5090529;28;20036;-70
2023/03/15 05:18:35;;;;;;;7.57;2.92;;;;;;;-146.27;100.00;48481.25;5091490;28;20082;-69
2023/03/15 05:21:00;;;;;;;8.77;2.25;;;;;;;-146.27;100.00;48481.25;5086676;28;20032;-70
2023/03/15 05:23:26;;;;;;;7.10;2.63;;;;;;;-146.27;100.00;48455.34;5090899;28;20024;-70
2023/03/15 05:25:52;;;;;;;6.63;2.33;;;;;;;-146.27;100.00;48443.41;5083962;28;20484;-69
2023/03/15 05:28:19;;;;;;;5.45;1.90;;;;;;;-146.27;100.00;48471.28;5085234;28;20233;-68
2023/03/15 05:30:45;;;;;;;11.15;1.90;;;;;;;-146.27;100.00;48467.31;5070796;28;20471;-69
2023/03/15 05:33:10;;;;;;;14.30;2.72;;;;;;;-146.27;100.00;48463.31;5085328;28;20028;-69
2023/03/15 05:35:36;;;;;;;5.82;2.40;;;;;;;-146.27;100.00;48439.41;5083073;28;20024;-70
2023/03/15 05:38:02;;;;;;;6.47;2.50;;;;;;;-146.27;100.00;48439.41;5086320;28;20451;-70
2023/03/15 05:40:29;;;;;;;4.22;1.88;;;;;;;-146.27;100.00;48449.38;5079646;28;20032;-70
2023/03/15 05:42:55;;;;;;;3.92;2.33;;;;;;;-146.27;100.00;48451.38;5079090;28;20017;-71
2023/03/15 05:45:21;;;;;;;14.05;2.88;;;;;;;-146.27;100.00;48455.34;5083123;28;20036;-71
2023/03/15 05:47:46;;;;;;;3.95;1.90;;;;;;;-146.27;100.00;48431.47;5079609;28;20403;-70
2023/03/15 05:50:12;;;;;;;3.42;1.60;;;;;;;-146.27;100.00;48443.41;5080414;28;20480;-70
2023/03/15 05:52:37;;;;;;;8.35;2.75;;;;;;;-146.27;100.00;48467.31;5083552;28;20085;-70
2023/03/15 05:55:03;;;;;;;8.15;2.80;;;;;;;-146.27;100.00;48475.28;5084263;28;20031;-71
2023/03/15 05:57:28;;;;;;;5.15;2.78;;;;;;;-146.27;100.00;48471.28;5081926;28;20032;-70
2023/03/15 05:59:53;;;;;;;12.73;3.33;;;;;;;-146.27;100.00;48457.34;5088724;28;20024;-71
2023/03/15 06:02:20;;;;;;;6.45;2.55;;;;;;;-146.27;100.00;48461.34;5076979;28;20024;-70
2023/03/15 06:04:45;;;;;;;5.03;2.47;;;;;;;-146.27;100.00;48463.31;5082874;28;20035;-71
2023/03/15 06:07:11;;;;;;;9.88;2.40;;;;;;;-146.27;100.00;48471.28;5086356;28;20048;-69
2023/03/15 06:09:36;;;;;;;11.88;3.25;;;;;;;-146.27;100.00;48447.38;5086373;28;20074;-71
2023/03/15 06:12:02;;;;;;;6.78;2.95;;;;;;;-146.27;100.00;48443.41;5086104;28;20372;-71
2023/03/15 06:14:28;;;;;;;23.55;2.83;;;;;;;-146.27;100.00;48459.34;5084966;28;20056;-70
2023/03/15 06:16:53;;;;;;;7.88;2.15;;;;;;;-146.27;100.00;48487.22;5084382;28;20085;-70
2023/03/15 06:19:20;;;;;;;5.07;1.88;;;;;;;-146.27;100.00;48435.44;5077966;28;20099;-69
2023/03/15 06:21:45;;;;;;;8.70;2.50;;;;;;;-146.27;100.00;48471.28;5082250;28;20060;-70
2023/03/15 06:24:11;;;;;;;5.43;1.75;;;;;;;-146.27;100.00;48455.34;5085646;28;20028;-70
2023/03/15 06:26:37;;;;;;;16.23;2.60;;;;;;;-146.27;100.00;48449.38;5088033;28;20028;-71
2023/03/15 06:29:02;;;;;;;7.57;2.10;;;;;;;-146.27;100.00;48399.59;5081966;28;20028;-71
2023/03/15 06:31:28;;;;;;;15.07;2.55;;;;;;;-146.27;100.00;48489.22;5081117;28;20135;-71
2023/03/15 06:33:53;;;;;;;6.40;2.10;;;;;;;-146.27;100.00;48463.31;5094155;28;20020;-72
2023/03/15 06:36:19;;;;;;;15.07;2.90;;;;;;;-146.27;100.00;48479.25;5095926;28;20035;-71
2023/03/15 06:38:44;;;;;;;18.23;2.70;;;;;;;-146.27;100.00;48443.41;5088818;28;20079;-70
2023/03/15 06:41:14;;;;;;;7.05;2.30;;;;;;;-146.27;100.00;48445.41;5085544;28;20059;-69
2023/03/15 06:43:39;;;;;;;14.10;2.42;;;;;;;-146.27;100.00;48443.41;5087321;28;20043;-70
2023/03/15 06:46:05;;;;;;;13.32;2.33;;;;;;;-146.27;100.00;48439.41;5079911;28;20020;-70
2023/03/15 06:48:30;;;;;;;9.77;3.35;;;;;;;-146.27;100.00;48443.41;5079731;28;20377;-69
2023/03/15 06:50:56;;;;;;;10.90;3.03;;;;;;;-146.27;100.00;48469.31;5079850;28;20038;-70
2023/03/15 06:53:21;;;;;;;7.80;2.70;;;;;;;-146.27;100.00;48465.31;5088399;28;20028;-70
2023/03/15 06:55:47;;;;;;;13.60;2.72;;;;;;;-146.27;100.00;48459.34;5087932;28;20723;-70
2023/03/15 06:58:13;;;;;;;7.35;2.88;;;;;;;-146.27;100.00;48415.53;5079722;28;20495;-70
2023/03/15 07:00:38;;;;;;;20.92;8.10;;;;;;;-146.27;100.00;48389.63;5082351;28;20035;-69
2023/03/15 07:03:04;;;;;;;14.23;6.05;;;;;;;-146.27;100.00;48423.50;5086364;28;20024;-69
2023/03/15 07:05:30;;;;;;;7.20;3.20;;;;;;;-146.27;100.00;48463.31;5078797;28;20052;-70
2023/03/15 07:07:56;;;;;;;5.47;3.08;;;;;;;-146.27;100.00;48471.28;5085177;28;20092;-70
2023/03/15 07:10:21;;;;;;;14.02;4.38;;;;;;;-146.27;100.00;48475.28;5087191;28;20473;-70
2023/03/15 07:12:46;;;;;;;7.55;3.30;;;;;;;-146.27;100.00;48455.34;5085464;28;20036;-69
2023/03/15 07:15:12;;;;;;;18.25;2.75;;;;;;;-146.27;100.00;48463.31;5086160;28;20519;-70
2023/03/15 07:17:37;;;;;;;12.13;1.77;;;;;;;-146.27;100.00;48439.41;5085242;28;20036;-69
2023/03/15 07:20:04;;;;;;;3.58;1.55;;;;;;;-146.27;100.00;48459.34;5096991;28;20467;-70
2023/03/15 07:22:33;;;;;;;6.15;2.22;;;;;;;-146.27;100.00;48459.34;5099880;28;20023;-71
2023/03/15 07:24:58;;;;;;;9.82;2.10;;;;;;;-146.27;100.00;48443.41;5086885;28;20064;-71
2023/03/15 07:27:24;;;;;;;10.63;1.90;;;;;;;-146.27;100.00;48471.28;5088063;28;20321;-70
2023/03/15 07:29:49;;;;;;;5.05;1.45;;;;;;;-146.27;100.00;48439.41;5084752;28;20379;-70
2023/03/15 07:32:15;;;;;;;12.68;2.38;;;;;;;-146.27;100.00;48439.41;5092449;28;20036;-69
2023/03/15 07:34:40;;;;;;;11.73;2.50;;;;;;;-146.27;100.00;48505.16;5086190;28;20027;-70
2023/03/15 07:37:05;;;;;;;17.40;3.03;;;;;;;-146.27;100.00;48459.34;5086037;28;20557;-71
2023/03/15 07:39:31;;;;;;;17.23;2.90;;;;;;;-146.27;100.00;48463.31;5093329;28;20027;-70
2023/03/15 07:41:58;;;;;;;15.73;2.33;;;;;;;-146.27;100.00;48427.47;5091121;28;20035;-72
2023/03/15 07:44:24;;;;;;;14.25;2.05;;;;;;;-146.27;100.00;48447.38;5084055;28;20028;-71
2023/03/15 07:46:50;;;;;;;15.40;3.50;;;;;;;-146.27;100.00;48469.31;5087886;28;20055;-71
2023/03/15 07:49:15;;;;;;;15.48;2.55;;;;;;;-146.27;100.00;48445.41;5088922;28;20028;-71
2023/03/15 07:51:41;;;;;;;6.13;1.92;;;;;;;-146.27;100.00;48467.31;5085828;28;20365;-71
2023/03/15 07:54:07;;;;;;;19.10;3.33;;;;;;;-146.27;100.00;48467.31;5082585;28;20023;-71
2023/03/15 07:56:32;;;;;;;16.63;3.15;;;;;;;-146.27;100.00;48451.38;5086652;28;20435;-71
2023/03/15 07:58:59;;;;;;;26.08;4.47;;;;;;;-146.27;100.00;48459.34;5080681;28;20472;-70
2023/03/15 08:01:24;;;;;;;15.43;3.22;;;;;;;-146.27;100.00;48463.31;5091870;28;20085;-70
2023/03/15 08:03:50;;;;;;;9.68;3.00;;;;;;;-146.27;100.00;48455.34;5077752;28;20028;-70
2023/03/15 08:06:15;;;;;;;7.97;2.20;;;;;;;-146.27;100.00;48475.28;5087237;28;20047;-69
2023/03/15 08:08:41;;;;;;;13.25;3.33;;;;;;;-146.27;100.00;48451.38;5087373;28;20172;-70
2023/03/15 08:11:06;;;;;;;16.08;3.08;;;;;;;-146.27;100.00;48447.38;5094162;28;20059;-71
2023/03/15 08:13:32;;;;;;;12.18;2.78;;;;;;;-146.27;100.00;48451.38;5086007;28;20371;-71
2023/03/15 08:15:58;;;;;;;11.30;2.72;;;;;;;-146.27;100.00;48465.31;5082623;28;20360;-70
2023/03/15 08:18:23;;;;;;;17.98;4.07;;;;;;;-146.27;100.00;48421.50;5080463;28;20031;-70
2023/03/15 08:20:48;;;;;;;19.90;3.88;;;;;;;-146.27;100.00;48471.28;5089843;28;20024;-70
2023/03/15 08:23:16;;;;;;;16.15;3.42;;;;;;;-146.27;100.00;48435.44;5089700;28;20103;-71
2023/03/15 08:25:43;;;;;;;15.75;3.67;;;;;;;-146.27;100.00;48467.31;5087353;28;20109;-71
2023/03/15 08:28:09;;;;;;;12.48;3.05;;;;;;;-146.27;100.00;48407.56;5092862;28;20108;-71
2023/03/15 08:30:34;;;;;;;7.05;2.33;;;;;;;-146.27;100.00;48451.38;5094266;28;20103;-71
2023/03/15 08:33:00;;;;;;;9.80;1.85;;;;;;;-146.27;100.00;48489.22;5091613;28;20467;-71
2023/03/15 08:35:26;;;;;;;15.25;1.88;;;;;;;-146.27;100.00;48451.38;5089127;28;20032;-70
2023/03/15 08:37:51;;;;;;;8.70;1.17;;;;;;;-146.27;100.00;48407.56;5088965;28;20027;-69
2023/03/15 08:40:25;;;;;;;7.10;1.70;;;;;;;-146.27;100.00;48459.34;5092152;28;20411;-70
2023/03/15 08:42:54;;;;;;;;;;;;;;;-146.27;100.00;48441.41;5083563;28;20544;-71
2023/03/15 08:45:22;;;;;;;5.30;1.23;;;;;;;-146.27;100.00;48477.25;5090726;28;20006;-69
2023/03/15 08:47:48;;;;;;;5.57;1.40;;;;;;;-146.27;100.00;48407.56;5085173;28;20025;-72
2023/03/15 08:50:15;;;;;;;7.43;2.00;;;;;;;-146.27;100.00;48475.28;5086909;28;20031;-70
2023/03/15 08:52:41;;;;;;;4.72;0.90;;;;;;;-146.27;100.00;48441.41;5081406;28;20149;-71
2023/03/15 08:55:07;;;;;;;15.85;2.08;;;;;;;-146.27;100.00;48413.53;5085803;28;20023;-69
2023/03/15 08:57:33;;;;;;;2.22;0.85;;;;;;;-146.27;100.00;48439.41;5078789;28;20043;-70
2023/03/15 09:00:07;;;;;;;5.20;1.15;;;;;;;-146.27;100.00;48465.31;5059974;28;20479;-70
2023/03/15 09:02:33;;;;;;;7.43;1.30;;;;;;;-146.27;100.00;48411.53;5083449;28;20091;-69
2023/03/15 09:04:58;;;;;;;5.22;1.20;;;;;;;-146.27;100.00;48447.38;5087834;28;20126;-69
2023/03/15 09:07:25;;;;;;;8.35;1.13;;;;;;;-146.27;100.00;48437.44;5086559;28;20040;-71
2023/03/15 09:09:53;;;;;;;6.38;1.13;;;;;;;-146.27;100.00;48407.56;5090626;28;20476;-70
2023/03/15 09:12:19;;;;;;;6.40;1.23;;;;;;;-146.27;100.00;48435.44;5087775;28;21728;-71
2023/03/15 09:14:45;;;;;;;6.07;1.38;;;;;;;-146.27;100.00;48423.50;5082007;28;20024;-72
2023/03/15 09:17:11;;;;;;;8.77;1.48;;;;;;;-146.27;100.00;48445.41;5081308;28;20115;-71
2023/03/15 09:19:36;;;;;;;4.28;0.95;;;;;;;-146.27;100.00;48449.38;5091103;28;20015;-69
2023/03/15 09:22:02;;;;;;;9.80;1.40;;;;;;;-146.27;99.91;48415.53;5091741;28;20086;-69
2023/03/15 09:24:27;;;;;;;8.50;1.65;;;;;;;-146.27;100.00;48423.50;5081064;28;20464;-68
2023/03/15 09:26:52;;;;;;;11.10;1.60;;;;;;;-146.27;91.12;48427.47;5087345;28;20412;-68
2023/03/15 09:29:18;;;;;;;4.10;0.90;;;;;;;-146.27;94.32;48415.53;5090809;28;20059;-69
2023/03/15 09:31:43;;;;;;;4.60;1.60;;;;;;;-146.27;90.88;48427.47;5073274;28;20453;-68
2023/03/15 09:34:09;;;;;;;5.78;1.27;;;;;;;-146.27;91.11;48451.38;5079948;28;20024;-69
2023/03/15 09:36:34;;;;;;;6.32;1.00;;;;;;;-146.27;89.48;48423.50;5072526;28;20112;-68
2023/03/15 09:39:00;;;;;;;3.38;0.70;;;;;;;-146.27;79.68;48423.50;5082156;28;20463;-68
2023/03/15 09:41:53;;;;;;;9.30;1.10;;;;;;;-146.27;75.59;48435.44;5085988;28;20032;-68
2023/03/15 09:44:21;;;;;;;5.45;0.82;;;;;;;-146.27;79.40;48407.56;5079130;28;20031;-70
2023/03/15 09:46:50;;;;;;;12.35;1.27;;;;;;;-146.27;80.12;48417.50;5075594;28;20047;-69
2023/03/15 09:49:29;;;;;;;4.15;0.98;;;;;;;-146.27;73.90;48391.63;5083878;28;20028;-69
2023/03/15 09:52:02;;;;;;;9.13;1.38;;;;;;;-146.27;60.14;48415.53;5090456;28;20036;-69
2023/03/15 09:54:55;;;;;;;7.15;1.23;;;;;;;-146.27;74.25;48387.63;5088119;28;20114;-68
2023/03/15 09:57:49;;;;;;;10.23;1.10;;;;;;;-146.27;65.98;48415.53;5078491;28;20127;-68
2023/03/15 10:00:34;;;;;;;9.38;1.02;;;;;;;-146.27;61.23;48413.53;5080439;28;20040;-69
2023/03/15 10:03:05;;;;;;;4.38;1.00;;;;;;;-146.27;59.16;48403.56;5079390;28;20028;-68
2023/03/15 10:05:39;;;;;;;5.05;1.15;;;;;;;-146.27;65.85;48401.56;5084654;28;20073;-68
2023/03/15 10:08:23;;;;;;;3.35;0.95;;;;;;;-146.27;52.45;48375.69;5081029;28;20040;-69
2023/03/15 10:10:53;;;;;;;7.00;0.93;;;;;;;-146.27;51.87;48371.69;5085796;28;20070;-69
2023/03/15 10:13:21;;;;;;;3.45;1.25;;;;;;;-146.27;51.55;48407.56;5084615;28;20032;-68
2023/03/15 10:15:52;;;;;;;9.15;0.90;;;;;;;-146.27;51.01;48411.53;5086804;28;20043;-69
2023/03/15 10:18:31;;;;;;;5.22;0.90;;;;;;;-146.27;61.20;48379.66;5085048;28;20031;-68
2023/03/15 10:21:21;;;;;;;5.63;0.90;;;;;;;-146.27;53.89;48343.81;5085085;28;20036;-68
2023/03/15 10:23:52;;;;;;;5.75;1.02;;;;;;;-146.27;48.53;48349.78;5080270;28;20021;-69
2023/03/15 10:26:26;;;;;;;5.82;0.80;;;;;;;-146.27;49.46;48375.69;5084908;28;20492;-68
2023/03/15 10:28:52;;;;;;;4.53;0.82;;;;;;;-146.27;46.81;48347.81;5086649;28;20024;-68
2023/03/15 10:31:22;;;;;;;5.03;1.10;;;;;;;-146.27;44.88;48391.63;5081910;28;20059;-69
2023/03/15 10:33:49;;;;;;;3.33;0.85;;;;;;;-146.27;46.27;48371.69;5083046;28;20107;-69
2023/03/15 10:36:20;;;;;;;3.65;0.85;;;;;;;-146.27;46.61;48367.72;5082417;28;20024;-68
2023/03/15 10:38:47;;;;;;;6.35;0.90;;;;;;;-146.27;43.43;48397.59;5081441;28;20024;-68
2023/03/15 10:41:26;;;;;;;4.38;0.80;;;;;;;-146.27;42.26;48367.72;5081325;28;20028;-69
2023/03/15 10:43:59;;;;;;;6.30;0.90;;;;;;;-146.27;43.88;48371.69;5085879;28;20468;-68
2023/03/15 10:46:25;;;;;;;2.92;0.95;;;;;;;-146.27;44.16;48355.78;5084427;28;20103;-68
2023/03/15 10:48:55;;;;;;;8.40;0.90;;;;;;;-146.27;44.57;48353.78;5090894;28;20116;-68
2023/03/15 10:51:31;;;;;;;2.90;0.95;;;;;;;-146.27;45.67;48355.78;5089902;28;20032;-68
2023/03/15 10:54:18;;;;;;;4.85;1.23;;;;;;;-146.27;43.78;48365.72;5085403;28;20121;-69
2023/03/15 10:56:48;;;;;;;4.18;0.80;;;;;;;-146.27;42.34;48351.78;5081146;28;20134;-68
2023/03/15 10:59:16;;;;;;;3.30;0.73;;;;;;;-146.27;41.00;48371.69;5095050;28;20016;-68
2023/03/15 11:01:46;;;;;;;6.70;1.20;;;;;;;-146.27;40.81;48315.94;5087342;28;20027;-67
2023/03/15 11:04:20;;;;;;;4.10;0.90;;;;;;;-146.27;43.02;48357.75;5074994;28;20055;-69
2023/03/15 11:06:50;;;;;;;4.93;1.00;;;;;;;-146.27;39.84;48347.81;5091613;28;20097;-70
2023/03/15 11:09:20;;;;;;;4.70;0.90;;;;;;;-146.27;40.93;48347.81;5092349;28;20032;-68
2023/03/15 11:11:58;;;;;;;7.43;1.30;;;;;;;-146.27;42.81;48353.78;5093337;28;20028;-68